Time;durP1;ratioP1;P1;durP2;ratioP2;P2;SDS_P1;SDS_P2;PMS_P1;PMS_P2;Temp;Humidity;BMP_temperature;BMP_pressure;BME280_temperature;BME280_humidity;BME280_pressure;Samples;Min_cycle;Max_cycle;Signal;HPM_P1;HPM_P2
2022/11/17 00:00:44;;;;;;;8.18;6.82;;;6.10;99.90;;;;;;2071415;28;20096;-69
2022/11/17 00:01:44;;;;;;;8.73;6.90;;;6.00;99.90;;;;;;2072108;28;20030;-69
2022/11/17 00:02:46;;;;;;;8.38;6.75;;;6.00;99.90;;;;;;2072321;28;20060;-69
2022/11/17 00:03:48;;;;;;;8.10;6.63;;;6.00;99.90;;;;;;2072251;28;20463;-70
2022/11/17 00:04:49;;;;;;;8.27;6.72;;;6.00;99.90;;;;;;2079516;28;20087;-70
2022/11/17 00:05:50;;;;;;;8.45;6.40;;;6.00;99.90;;;;;;2080004;28;20037;-70
2022/11/17 00:06:50;;;;;;;7.93;6.07;;;5.90;99.90;;;;;;2072190;28;20105;-69
2022/11/17 00:07:51;;;;;;;7.68;5.97;;;5.90;99.90;;;;;;2072259;28;20037;-69
2022/11/17 00:08:52;;;;;;;7.97;6.25;;;5.90;99.90;;;;;;2072083;28;20030;-69
2022/11/17 00:09:53;;;;;;;8.13;6.50;;;5.90;99.90;;;;;;2072090;28;20538;-69
2022/11/17 00:10:53;;;;;;;8.27;6.28;;;5.90;99.90;;;;;;2071790;28;20028;-69
2022/11/17 00:14:40;;;;;;;8.60;6.40;;;5.80;99.90;;;;;;2071050;28;20026;-69
2022/11/17 00:15:42;;;;;;;8.77;6.50;;;5.80;99.90;;;;;;2071028;28;20033;-69
2022/11/17 00:16:48;;;;;;;8.55;6.50;;;5.80;99.90;;;;;;2071303;28;20076;-73
2022/11/17 00:21:17;;;;;;;7.60;6.10;;;5.80;99.90;;;;;;2071578;28;20033;-69
2022/11/17 00:21:48;;;;;;;7.65;6.10;;;5.70;99.90;;;;;;2071300;28;20615;-70
2022/11/17 00:22:49;;;;;;;7.47;5.78;;;5.70;99.90;;;;;;2071506;28;20034;-70
2022/11/17 00:23:49;;;;;;;7.65;6.15;;;5.70;99.90;;;;;;2072079;28;20113;-70
2022/11/17 00:24:50;;;;;;;7.45;5.82;;;5.70;99.90;;;;;;2071972;28;20116;-70
2022/11/17 00:25:51;;;;;;;7.00;5.32;;;5.70;99.90;;;;;;2072097;28;20476;-69
2022/11/17 00:27:00;;;;;;;6.93;5.60;;;5.70;99.90;;;;;;2072133;28;20034;-70
2022/11/17 00:28:01;;;;;;;7.15;5.97;;;5.70;99.90;;;;;;2071547;28;20136;-70
2022/11/17 00:29:05;;;;;;;7.32;5.60;;;5.70;99.90;;;;;;2063414;28;20117;-69
2022/11/17 00:30:06;;;;;;;7.80;5.50;;;5.70;99.90;;;;;;2071573;28;20029;-69
2022/11/17 00:34:04;;;;;;;8.15;6.00;;;5.60;99.90;;;;;;2072078;28;20488;-69
2022/11/17 00:35:06;;;;;;;10.88;7.50;;;5.60;99.90;;;;;;2071999;28;20030;-69
2022/11/17 00:36:07;;;;;;;8.13;6.20;;;5.70;99.90;;;;;;2071952;28;20745;-70
2022/11/17 00:37:09;;;;;;;6.88;5.30;;;5.60;99.90;;;;;;2071319;28;20034;-69
2022/11/17 00:38:15;;;;;;;6.32;5.25;;;5.60;99.90;;;;;;2071496;28;20563;-69
2022/11/17 00:39:18;;;;;;;6.25;5.38;;;5.60;99.90;;;;;;2071544;28;20041;-69
2022/11/17 00:40:19;;;;;;;6.68;5.20;;;5.60;99.90;;;;;;2071487;28;20025;-69
2022/11/17 00:41:20;;;;;;;8.98;6.10;;;5.60;99.90;;;;;;2071677;28;20033;-70
2022/11/17 00:42:20;;;;;;;10.50;6.55;;;5.60;99.90;;;;;;2079757;28;20071;-70
2022/11/17 00:43:21;;;;;;;9.32;6.43;;;5.60;99.90;;;;;;2079277;28;20038;-70
2022/11/17 00:44:22;;;;;;;8.57;6.35;;;5.60;99.90;;;;;;2071753;28;20061;-68
2022/11/17 00:45:22;;;;;;;7.65;5.85;;;5.60;99.90;;;;;;2071648;28;20018;-69
2022/11/17 00:46:23;;;;;;;8.73;6.07;;;5.60;99.90;;;;;;2071908;28;20567;-69
2022/11/17 00:47:24;;;;;;;9.02;6.45;;;5.60;99.90;;;;;;2071768;28;20030;-69
2022/11/17 00:48:25;;;;;;;7.80;5.93;;;5.60;99.90;;;;;;2072013;28;20468;-68
2022/11/17 00:49:25;;;;;;;8.57;5.90;;;5.60;99.90;;;;;;2072143;28;20029;-71
2022/11/17 00:50:26;;;;;;;7.03;5.13;;;5.50;99.90;;;;;;2070743;28;20022;-71
2022/11/17 00:51:27;;;;;;;5.90;4.80;;;5.50;99.90;;;;;;2070880;28;20037;-71
2022/11/17 00:52:27;;;;;;;6.93;5.03;;;5.50;99.90;;;;;;2071959;28;20111;-71
2022/11/17 00:53:28;;;;;;;6.13;4.75;;;5.40;99.90;;;;;;2071438;28;20030;-71
2022/11/17 00:54:29;;;;;;;6.18;4.90;;;5.40;99.90;;;;;;2072062;28;20057;-72
2022/11/17 00:55:29;;;;;;;7.15;5.13;;;5.40;99.90;;;;;;2073031;28;20069;-72
2022/11/17 00:56:30;;;;;;;7.05;5.50;;;5.40;99.90;;;;;;2072557;28;20040;-71
2022/11/17 00:57:31;;;;;;;7.90;5.60;;;5.40;99.90;;;;;;2072995;28;20037;-72
2022/11/17 00:58:34;;;;;;;7.80;5.30;;;5.40;99.90;;;;;;2072392;28;20054;-72
2022/11/17 00:59:34;;;;;;;6.75;4.95;;;5.40;99.90;;;;;;2072870;28;20084;-71
2022/11/17 01:00:35;;;;;;;7.07;5.35;;;5.40;99.90;;;;;;2071507;28;20557;-72
2022/11/17 01:01:37;;;;;;;6.28;5.18;;;5.30;99.90;;;;;;2071887;28;20043;-72
2022/11/17 01:02:37;;;;;;;6.95;5.32;;;5.30;99.90;;;;;;2071501;28;20041;-72
2022/11/17 01:03:38;;;;;;;6.10;4.90;;;5.30;99.90;;;;;;2071172;28;20032;-72
2022/11/17 01:04:38;;;;;;;6.65;5.32;;;5.30;99.90;;;;;;2071674;28;20030;-72
2022/11/17 01:05:39;;;;;;;9.90;6.28;;;5.30;99.90;;;;;;2071851;28;20460;-72
2022/11/17 01:06:43;;;;;;;9.20;6.50;;;5.30;99.90;;;;;;2071584;28;20026;-71
2022/11/17 01:07:45;;;;;;;8.45;5.85;;;5.30;99.90;;;;;;2071956;28;20030;-72
2022/11/17 01:08:46;;;;;;;6.85;5.15;;;5.30;99.90;;;;;;2071689;28;20032;-71
2022/11/17 01:09:47;;;;;;;7.88;5.70;;;5.30;99.90;;;;;;2071767;28;20045;-71
2022/11/17 01:10:47;;;;;;;7.97;5.80;;;5.30;99.90;;;;;;2071095;28;20052;-71
2022/11/17 01:11:50;;;;;;;6.43;5.03;;;5.30;99.90;;;;;;2071653;28;20100;-72
2022/11/17 01:12:50;;;;;;;6.32;5.05;;;5.30;99.90;;;;;;2072095;28;20141;-71
2022/11/17 01:13:54;;;;;;;6.30;5.05;;;5.30;99.90;;;;;;2071866;28;20069;-70
2022/11/17 01:14:55;;;;;;;5.80;4.70;;;5.40;99.90;;;;;;2071169;28;20132;-71
2022/11/17 01:16:00;;;;;;;6.30;4.75;;;5.40;99.90;;;;;;2071763;28;20033;-72
2022/11/17 01:17:00;;;;;;;5.05;4.35;;;5.40;99.90;;;;;;2071156;28;20018;-71
2022/11/17 01:18:01;;;;;;;6.18;4.80;;;5.40;99.90;;;;;;2063113;28;20032;-71
2022/11/17 01:19:03;;;;;;;5.43;4.40;;;5.40;99.90;;;;;;2071110;28;20749;-72
2022/11/17 01:20:04;;;;;;;5.93;4.70;;;5.40;99.90;;;;;;2071619;28;20025;-72
2022/11/17 01:21:08;;;;;;;5.65;4.63;;;5.40;99.90;;;;;;2070927;28;20026;-71
2022/11/17 01:22:09;;;;;;;5.70;4.60;;;5.40;99.90;;;;;;2071166;28;20688;-72
2022/11/17 01:23:09;;;;;;;5.07;4.30;;;5.40;99.90;;;;;;2062885;28;20085;-70
2022/11/17 01:24:12;;;;;;;5.72;4.53;;;5.30;99.90;;;;;;2062677;28;20072;-72
2022/11/17 01:25:13;;;;;;;4.97;4.13;;;5.40;99.90;;;;;;2071674;28;20030;-70
2022/11/17 01:26:19;;;;;;;6.40;4.50;;;5.40;99.90;;;;;;2071517;28;20068;-72
2022/11/17 01:27:20;;;;;;;4.68;3.97;;;5.30;99.90;;;;;;2071606;28;20057;-71
2022/11/17 01:28:20;;;;;;;4.75;4.00;;;5.30;99.90;;;;;;2071489;28;20411;-72
2022/11/17 01:29:21;;;;;;;5.70;4.20;;;5.40;99.90;;;;;;2071845;28;20022;-72
2022/11/17 01:30:21;;;;;;;4.25;3.80;;;5.40;99.90;;;;;;2071066;28;20424;-72
2022/11/17 01:31:27;;;;;;;5.10;3.70;;;5.40;99.90;;;;;;2071184;28;20049;-72
2022/11/17 01:32:27;;;;;;;4.28;3.55;;;5.40;99.90;;;;;;2071726;28;20049;-72
2022/11/17 01:33:28;;;;;;;4.95;3.90;;;5.40;99.90;;;;;;2071855;28;20125;-72
2022/11/17 01:34:29;;;;;;;4.07;3.60;;;5.50;99.90;;;;;;2071380;28;20022;-72
2022/11/17 01:35:32;;;;;;;4.18;3.78;;;5.50;99.90;;;;;;2071089;28;20564;-72
2022/11/17 01:37:58;;;;;;;4.60;4.00;;;5.50;99.90;;;;;;2080998;28;20076;-68
2022/11/17 01:38:59;;;;;;;4.38;3.63;;;5.40;99.90;;;;;;2085476;28;20380;-69
2022/11/17 01:39:59;;;;;;;4.32;3.80;;;5.40;99.90;;;;;;2085848;28;20093;-70
2022/11/17 01:41:02;;;;;;;4.30;3.67;;;5.40;99.90;;;;;;2085063;28;20396;-70
2022/11/17 01:42:11;;;;;;;3.83;3.40;;;5.40;99.90;;;;;;2082120;28;20031;-69
2022/11/17 01:43:12;;;;;;;4.05;3.40;;;5.40;99.90;;;;;;2080597;28;20033;-69
2022/11/17 01:44:34;;;;;;;4.57;3.60;;;5.40;99.90;;;;;;2079794;28;20040;-69
2022/11/17 01:45:36;;;;;;;4.57;3.80;;;5.40;99.90;;;;;;2079126;28;20037;-69
2022/11/17 01:46:38;;;;;;;4.53;3.70;;;5.40;99.90;;;;;;2071366;28;20037;-68
2022/11/17 01:47:45;;;;;;;4.35;3.58;;;5.40;99.90;;;;;;2079192;28;20151;-72
2022/11/17 01:48:48;;;;;;;3.55;3.22;;;5.40;99.90;;;;;;2079075;28;20021;-72
2022/11/17 01:49:53;;;;;;;3.88;3.47;;;5.40;99.90;;;;;;2079185;28;20025;-72
2022/11/17 01:50:54;;;;;;;3.97;3.20;;;5.40;99.90;;;;;;2079073;28;20021;-72
2022/11/17 01:52:03;;;;;;;3.72;3.22;;;5.30;99.90;;;;;;2079625;28;20340;-72
2022/11/17 01:53:07;;;;;;;3.63;3.30;;;5.30;99.90;;;;;;2077287;28;20094;-71
2022/11/17 01:54:11;;;;;;;3.63;3.10;;;5.30;99.90;;;;;;2076920;28;20076;-72
2022/11/17 01:55:12;;;;;;;3.50;3.20;;;5.30;99.90;;;;;;2063434;28;20029;-72
2022/11/17 01:56:26;;;;;;;3.95;3.22;;;5.40;99.90;;;;;;2071344;28;20054;-72
2022/11/17 01:57:32;;;;;;;3.90;3.20;;;5.30;99.90;;;;;;2074805;28;20112;-71
2022/11/17 01:58:39;;;;;;;3.22;2.90;;;5.40;99.90;;;;;;2076131;28;20864;-72
2022/11/17 01:59:54;;;;;;;4.30;3.20;;;5.40;99.90;;;;;;2073941;28;20029;-71
2022/11/17 02:00:55;;;;;;;3.63;3.10;;;5.40;99.90;;;;;;2078600;28;20026;-72
2022/11/17 02:01:56;;;;;;;4.43;3.10;;;5.40;99.90;;;;;;2071199;28;20034;-72
2022/11/17 02:02:57;;;;;;;3.38;3.00;;;5.40;99.90;;;;;;2064177;28;20145;-72
2022/11/17 02:03:59;;;;;;;4.15;3.28;;;5.40;99.90;;;;;;2072734;28;20479;-72
2022/11/17 02:05:10;;;;;;;3.72;3.20;;;5.40;99.90;;;;;;2080950;28;20025;-71
2022/11/17 02:06:18;;;;;;;3.67;3.10;;;5.40;99.90;;;;;;2081313;28;20453;-73
2022/11/17 02:07:32;;;;;;;3.80;3.20;;;5.40;99.90;;;;;;2081234;28;20022;-72
2022/11/17 02:08:36;;;;;;;3.92;3.40;;;5.30;99.90;;;;;;2081389;28;20032;-72
2022/11/17 02:09:39;;;;;;;3.60;3.13;;;5.30;99.90;;;;;;2081404;28;20417;-72
2022/11/17 02:10:42;;;;;;;3.78;3.30;;;5.30;99.90;;;;;;2080373;28;20029;-72
2022/11/17 02:11:42;;;;;;;4.20;3.33;;;5.30;99.90;;;;;;2080992;28;20546;-72
2022/11/17 02:12:44;;;;;;;3.92;3.00;;;5.30;99.90;;;;;;2080814;28;20038;-72
2022/11/17 02:13:45;;;;;;;3.30;3.00;;;5.30;99.90;;;;;;2072690;28;20447;-72
2022/11/17 02:14:49;;;;;;;4.20;3.20;;;5.30;99.90;;;;;;2080538;28;20037;-72
2022/11/17 02:15:50;;;;;;;3.80;3.30;;;5.30;99.90;;;;;;2072609;28;20080;-72
2022/11/17 02:16:51;;;;;;;4.72;3.55;;;5.40;99.90;;;;;;2072615;28;20586;-72
2022/11/17 02:17:53;;;;;;;5.15;3.55;;;5.30;99.90;;;;;;2081629;28;20079;-72
2022/11/17 02:18:53;;;;;;;4.72;3.42;;;5.30;99.90;;;;;;2081219;28;20037;-72
2022/11/17 02:20:32;;;;;;;4.78;3.47;;;5.30;99.90;;;;;;2081256;28;20367;-72
2022/11/17 02:21:47;;;;;;;8.10;4.57;;;5.30;99.90;;;;;;2071386;28;20056;-72
2022/11/17 02:23:12;;;;;;;6.65;4.40;;;5.30;99.90;;;;;;2074299;28;20554;-72
2022/11/17 02:24:26;;;;;;;4.70;3.42;;;5.30;99.90;;;;;;2080496;28;20033;-72
2022/11/17 02:26:01;;;;;;;4.80;3.60;;;5.30;99.90;;;;;;2080704;28;20017;-72
2022/11/17 02:27:39;;;;;;;3.83;3.20;;;5.30;99.90;;;;;;2081311;28;20057;-72
2022/11/17 02:29:18;;;;;;;4.07;2.80;;;5.30;99.90;;;;;;2081057;28;20090;-72
2022/11/17 02:30:21;;;;;;;3.40;2.90;;;5.30;99.90;;;;;;2080350;28;20045;-72
2022/11/17 02:31:28;;;;;;;4.85;3.30;;;5.30;99.90;;;;;;2080040;28;20025;-73
2022/11/17 02:32:45;;;;;;;4.45;3.33;;;5.30;99.90;;;;;;2081283;28;20029;-71
2022/11/17 02:34:12;;;;;;;5.35;3.55;;;5.30;99.90;;;;;;2080504;28;20381;-71
2022/11/17 02:35:27;;;;;;;3.15;2.83;;;5.30;99.90;;;;;;2080736;28;20029;-72
2022/11/17 02:36:58;;;;;;;4.53;3.10;;;5.20;99.90;;;;;;2080444;28;20100;-72
2022/11/17 02:38:15;;;;;;;4.00;3.00;;;5.20;99.90;;;;;;2080381;28;20049;-72
2022/11/17 02:39:25;;;;;;;4.13;3.17;;;5.20;99.90;;;;;;2081215;28;20048;-72
2022/11/17 02:40:36;;;;;;;4.40;2.90;;;5.30;99.90;;;;;;2081030;28;20060;-72
2022/11/17 02:41:59;;;;;;;3.60;3.20;;;5.30;99.90;;;;;;2081020;28;20372;-72
2022/11/17 02:44:35;;;;;;;3.13;2.83;;;5.30;99.90;;;;;;2080323;28;20040;-72
2022/11/17 02:45:44;;;;;;;3.63;2.92;;;5.30;99.90;;;;;;2081238;28;20148;-72
2022/11/17 02:46:48;;;;;;;3.70;3.20;;;5.30;99.90;;;;;;2081370;28;20044;-72
2022/11/17 02:47:52;;;;;;;3.97;3.17;;;5.30;99.90;;;;;;2081386;28;20061;-72
2022/11/17 02:49:04;;;;;;;4.03;3.28;;;5.30;99.90;;;;;;2080599;28;20526;-71
2022/11/17 02:50:07;;;;;;;4.13;3.40;;;5.30;99.90;;;;;;2080349;28;20018;-72
2022/11/17 02:51:15;;;;;;;4.75;3.55;;;5.30;99.90;;;;;;2080732;28;20061;-72
2022/11/17 02:52:17;;;;;;;4.40;3.97;;;5.30;99.90;;;;;;2080452;28;20036;-72
2022/11/17 02:53:19;;;;;;;4.53;3.67;;;5.30;99.90;;;;;;2080139;28;20653;-72
2022/11/17 02:54:26;;;;;;;4.25;3.45;;;5.30;99.90;;;;;;2079932;28;20040;-72
2022/11/17 02:55:32;;;;;;;4.25;3.20;;;5.40;99.90;;;;;;2080151;28;20027;-72
2022/11/17 02:56:32;;;;;;;3.70;3.25;;;5.40;99.90;;;;;;2080843;28;20529;-73
2022/11/17 02:57:38;;;;;;;3.55;3.20;;;5.40;99.90;;;;;;2080995;28;20087;-72
2022/11/17 02:58:39;;;;;;;4.25;3.40;;;5.40;99.90;;;;;;2080838;28;20048;-72
2022/11/17 02:59:45;;;;;;;3.58;3.25;;;5.40;99.90;;;;;;2081025;28;20060;-73
2022/11/17 03:01:07;;;;;;;4.82;3.42;;;5.40;99.90;;;;;;2079771;28;20033;-73
2022/11/17 03:02:13;;;;;;;3.53;3.15;;;5.40;99.90;;;;;;2080670;28;20029;-72
2022/11/17 03:03:38;;;;;;;4.13;3.38;;;5.40;99.90;;;;;;2080942;28;20554;-73
2022/11/17 03:04:50;;;;;;;3.70;3.20;;;5.40;99.90;;;;;;2080791;28;20033;-73
2022/11/17 03:06:34;;;;;;;3.70;3.30;;;5.30;99.90;;;;;;2080874;28;20034;-72
2022/11/17 03:07:50;;;;;;;4.00;3.60;;;5.30;99.90;;;;;;2080161;28;20120;-73
2022/11/17 03:09:17;;;;;;;4.75;4.10;;;5.30;99.90;;;;;;2080858;28;20092;-73
2022/11/17 03:10:47;;;;;;;4.53;3.40;;;5.30;99.90;;;;;;2081059;28;20033;-73
2022/11/17 03:11:58;;;;;;;4.38;3.13;;;5.30;99.90;;;;;;2081529;28;20021;-73
2022/11/17 03:13:13;;;;;;;5.50;3.67;;;5.30;99.90;;;;;;2082029;28;20028;-73
2022/11/17 03:14:25;;;;;;;3.70;3.30;;;5.30;99.90;;;;;;2080231;28;20114;-72
2022/11/17 03:15:31;;;;;;;4.07;3.33;;;5.30;99.90;;;;;;2080235;28;20427;-73
2022/11/17 03:16:37;;;;;;;4.30;3.63;;;5.30;99.90;;;;;;2080756;28;20051;-73
2022/11/17 03:18:22;;;;;;;3.85;3.45;;;5.30;99.90;;;;;;2080894;28;20028;-73
2022/11/17 03:19:36;;;;;;;5.18;3.22;;;5.30;99.90;;;;;;2071451;28;20167;-73
2022/11/17 03:20:56;;;;;;;4.70;3.20;;;5.30;99.90;;;;;;2064471;28;20033;-72
2022/11/17 03:22:02;;;;;;;3.63;3.30;;;5.30;99.90;;;;;;2073979;28;20048;-73
2022/11/17 03:23:16;;;;;;;4.13;3.35;;;5.30;99.90;;;;;;2079802;28;20041;-73
2022/11/17 03:24:26;;;;;;;4.57;3.53;;;5.30;99.90;;;;;;2079577;28;20037;-73
2022/11/17 03:25:30;;;;;;;;;;;5.30;99.90;;;;;;2081110;28;20037;-72
2022/11/17 03:26:43;;;;;;;4.88;3.88;;;5.30;99.90;;;;;;2080599;28;19948;-73
2022/11/17 03:27:47;;;;;;;4.47;3.58;;;5.30;99.90;;;;;;2080747;28;20055;-73
2022/11/17 03:28:48;;;;;;;4.10;3.38;;;5.30;99.90;;;;;;2080459;28;20040;-72
2022/11/17 03:29:52;;;;;;;3.50;3.20;;;5.20;99.90;;;;;;2080653;28;20095;-73
2022/11/17 03:30:54;;;;;;;3.63;3.20;;;5.20;99.90;;;;;;2079550;28;20041;-73
2022/11/17 03:32:03;;;;;;;4.05;3.58;;;5.30;99.90;;;;;;2080110;28;20033;-72
2022/11/17 03:33:10;;;;;;;4.93;3.88;;;5.30;99.90;;;;;;2080720;28;20037;-72
2022/11/17 03:34:15;;;;;;;4.82;3.92;;;5.30;99.90;;;;;;2079578;28;20040;-73
2022/11/17 03:35:24;;;;;;;4.13;3.72;;;5.30;99.90;;;;;;2079982;28;20626;-72
2022/11/17 03:36:31;;;;;;;4.18;3.70;;;5.20;99.90;;;;;;2080102;28;20068;-72
2022/11/17 03:37:35;;;;;;;4.93;3.70;;;5.20;99.90;;;;;;2080151;28;20022;-73
2022/11/17 03:38:41;;;;;;;4.03;3.50;;;5.20;99.90;;;;;;2080067;28;20033;-73
2022/11/17 03:39:52;;;;;;;4.95;3.90;;;5.20;99.90;;;;;;2080143;28;20029;-73
2022/11/17 03:40:55;;;;;;;4.05;3.60;;;5.20;99.90;;;;;;2080336;28;20029;-73
2022/11/17 03:42:03;;;;;;;4.10;3.70;;;5.20;99.90;;;;;;2080805;28;20033;-73
2022/11/17 03:43:06;;;;;;;4.63;3.50;;;5.20;99.90;;;;;;2080683;28;20029;-72
2022/11/17 03:44:08;;;;;;;4.45;3.95;;;5.20;99.90;;;;;;2080205;28;20030;-73
2022/11/17 03:45:18;;;;;;;4.38;3.55;;;5.20;99.90;;;;;;2080496;28;20018;-72
2022/11/17 03:46:21;;;;;;;4.50;3.80;;;5.20;99.90;;;;;;2079944;28;20103;-72
2022/11/17 03:47:25;;;;;;;4.60;3.80;;;5.20;99.90;;;;;;2079976;28;20033;-72
2022/11/17 03:48:39;;;;;;;4.30;3.90;;;5.20;99.90;;;;;;2080510;28;20022;-72
2022/11/17 03:49:50;;;;;;;4.63;3.70;;;5.20;99.90;;;;;;2079909;28;20080;-72
2022/11/17 03:51:03;;;;;;;5.03;3.67;;;5.20;99.90;;;;;;2079370;28;20021;-71
2022/11/17 03:52:04;;;;;;;4.18;3.78;;;5.20;99.90;;;;;;2080556;28;20538;-72
2022/11/17 03:53:05;;;;;;;4.90;3.90;;;5.20;99.90;;;;;;2080455;28;20032;-72
2022/11/17 03:54:08;;;;;;;5.88;4.10;;;5.20;99.90;;;;;;2080108;28;20128;-73
2022/11/17 03:55:09;;;;;;;4.32;3.78;;;5.20;99.90;;;;;;2071741;28;20057;-72
2022/11/17 03:56:28;;;;;;;4.15;3.65;;;5.20;99.90;;;;;;2071785;28;20032;-72
2022/11/17 03:57:53;;;;;;;5.07;3.53;;;5.20;99.90;;;;;;2080481;28;20113;-72
2022/11/17 03:59:17;;;;;;;4.40;3.90;;;5.20;99.90;;;;;;2080578;28;20030;-72
2022/11/17 04:00:18;;;;;;;4.20;3.80;;;5.30;99.90;;;;;;2079732;28;20124;-71
2022/11/17 04:01:22;;;;;;;5.03;4.18;;;5.30;99.90;;;;;;2079388;28;20072;-71
2022/11/17 04:02:24;;;;;;;5.03;4.50;;;5.30;99.90;;;;;;2080578;28;20075;-71
2022/11/17 04:03:32;;;;;;;5.32;4.40;;;5.30;99.90;;;;;;2080578;28;20048;-72
2022/11/17 04:05:04;;;;;;;6.80;4.55;;;5.30;99.90;;;;;;2080563;28;20021;-71
2022/11/17 04:05:53;;;;;;;5.53;4.63;;;5.30;99.90;;;;;;2080578;28;20026;-71
2022/11/17 04:06:54;;;;;;;4.55;4.00;;;5.30;99.90;;;;;;2079725;28;20063;-71
2022/11/17 04:07:55;;;;;;;6.30;4.28;;;5.30;99.90;;;;;;2079750;28;20021;-71
2022/11/17 04:08:55;;;;;;;5.13;4.13;;;5.30;99.90;;;;;;2079545;28;20072;-71
2022/11/17 04:09:56;;;;;;;5.47;4.45;;;5.30;99.90;;;;;;2079645;28;20052;-71
2022/11/17 04:16:22;;;;;;;5.13;4.47;;;5.20;99.90;;;;;;2080598;28;20048;-73
2022/11/17 04:17:23;;;;;;;5.32;4.65;;;5.20;99.90;;;;;;2080504;28;20029;-72
2022/11/17 04:18:23;;;;;;;5.50;4.65;;;5.20;99.90;;;;;;2080539;28;20033;-72
2022/11/17 04:19:24;;;;;;;4.80;4.30;;;5.20;99.90;;;;;;2081238;28;20091;-73
2022/11/17 04:20:25;;;;;;;4.85;4.35;;;5.20;99.90;;;;;;2081051;28;20025;-73
2022/11/17 04:21:26;;;;;;;7.35;4.88;;;5.20;99.90;;;;;;2080095;28;20037;-72
2022/11/17 04:22:26;;;;;;;5.43;4.57;;;5.20;99.90;;;;;;2080883;28;20041;-73
2022/11/17 04:23:27;;;;;;;7.82;5.00;;;5.20;99.90;;;;;;2081570;28;20087;-72
2022/11/17 04:24:28;;;;;;;6.20;4.80;;;5.20;99.90;;;;;;2080246;28;20034;-72
2022/11/17 04:29:27;;;;;;;5.95;4.97;;;5.10;99.90;;;;;;2081432;28;20034;-72
2022/11/17 04:30:28;;;;;;;5.78;4.70;;;5.10;99.90;;;;;;2080265;28;20037;-72
2022/11/17 04:31:30;;;;;;;4.90;4.40;;;5.10;99.90;;;;;;2080313;28;20108;-73
2022/11/17 04:32:31;;;;;;;5.82;4.75;;;5.10;99.90;;;;;;2081078;28;20061;-72
2022/11/17 04:33:31;;;;;;;4.97;4.47;;;5.10;99.90;;;;;;2080661;28;20029;-72
2022/11/17 04:34:32;;;;;;;5.80;5.00;;;5.10;99.90;;;;;;2080918;28;20502;-72
2022/11/17 04:35:33;;;;;;;5.20;4.70;;;5.20;99.90;;;;;;2081047;28;20514;-72
2022/11/17 04:36:43;;;;;;;5.75;4.70;;;5.20;99.90;;;;;;2081157;28;20024;-72
2022/11/17 04:37:44;;;;;;;5.93;5.07;;;5.20;99.90;;;;;;2080934;28;20440;-72
2022/11/17 04:38:50;;;;;;;6.43;5.25;;;5.10;99.90;;;;;;2080882;28;20040;-72
2022/11/17 04:39:50;;;;;;;5.50;4.90;;;5.10;99.90;;;;;;2080870;28;20109;-72
2022/11/17 04:42:11;;;;;;;6.05;5.20;;;5.10;99.90;;;;;;2081049;28;20060;-73
2022/11/17 04:43:12;;;;;;;5.35;4.85;;;5.10;99.90;;;;;;2073027;28;20026;-73
2022/11/17 04:44:16;;;;;;;5.85;4.70;;;5.10;99.90;;;;;;2072995;28;20380;-72
2022/11/17 04:45:16;;;;;;;6.03;5.10;;;5.10;99.90;;;;;;2081018;28;20511;-73
2022/11/17 04:46:19;;;;;;;5.80;5.15;;;5.10;99.90;;;;;;2080685;28;20061;-72
2022/11/17 04:47:20;;;;;;;6.28;5.25;;;5.10;99.90;;;;;;2080093;28;20705;-72
2022/11/17 04:48:20;;;;;;;6.95;5.40;;;5.10;99.90;;;;;;2071487;28;20165;-73
2022/11/17 04:49:23;;;;;;;7.22;5.30;;;5.10;99.90;;;;;;2072463;28;20034;-73
2022/11/17 04:50:24;;;;;;;6.53;5.78;;;5.10;99.90;;;;;;2081516;28;20101;-72
2022/11/17 04:51:25;;;;;;;7.43;5.43;;;5.10;99.90;;;;;;2082091;28;20029;-72
2022/11/17 04:52:26;;;;;;;6.68;5.30;;;5.10;99.90;;;;;;2082291;28;20068;-72
2022/11/17 04:53:28;;;;;;;6.97;5.38;;;5.10;99.90;;;;;;2080944;28;20025;-72
2022/11/17 04:54:29;;;;;;;5.40;4.90;;;5.10;99.90;;;;;;2080521;28;20071;-73
2022/11/17 04:55:31;;;;;;;6.53;4.90;;;5.10;99.90;;;;;;2079637;28;20022;-72
2022/11/17 04:56:32;;;;;;;5.97;5.20;;;5.10;99.90;;;;;;2079482;28;20033;-72
2022/11/17 04:57:32;;;;;;;5.53;4.90;;;5.10;99.90;;;;;;2079791;28;20033;-72
2022/11/17 04:58:33;;;;;;;6.68;5.15;;;5.10;99.90;;;;;;2079875;28;20037;-72
2022/11/17 04:59:35;;;;;;;5.30;4.80;;;5.10;99.90;;;;;;2080468;28;20072;-72
2022/11/17 05:00:36;;;;;;;6.10;5.20;;;5.10;99.90;;;;;;2079886;28;20731;-72
2022/11/17 05:01:37;;;;;;;6.50;5.10;;;5.10;99.90;;;;;;2079618;28;20400;-72
2022/11/17 05:02:38;;;;;;;5.93;5.10;;;5.10;99.90;;;;;;2079545;28;20097;-71
2022/11/17 05:03:48;;;;;;;5.68;5.05;;;5.10;99.90;;;;;;2079280;28;20512;-71
2022/11/17 05:04:55;;;;;;;6.13;5.05;;;5.10;99.90;;;;;;2080027;28;20029;-72
2022/11/17 05:05:55;;;;;;;6.13;5.47;;;5.10;99.90;;;;;;2080219;28;20018;-72
2022/11/17 05:06:58;;;;;;;6.93;5.38;;;5.10;99.90;;;;;;2079497;28;20395;-72
2022/11/17 05:07:59;;;;;;;5.85;5.10;;;5.10;99.90;;;;;;2080112;28;20064;-73
2022/11/17 05:09:12;;;;;;;6.32;5.20;;;5.10;99.90;;;;;;2080971;28;20021;-72
2022/11/17 05:10:13;;;;;;;5.90;5.10;;;5.10;99.90;;;;;;2080597;28;20042;-72
2022/11/17 05:13:55;;;;;;;5.80;5.20;;;5.10;99.90;;;;;;2080280;28;20649;-71
2022/11/17 05:14:55;;;;;;;6.15;5.30;;;5.10;99.90;;;;;;2080017;28;20057;-72
2022/11/17 05:17:16;;;;;;;7.65;5.78;;;5.10;99.90;;;;;;2079987;28;20040;-71
2022/11/17 05:18:16;;;;;;;8.18;5.97;;;5.10;99.90;;;;;;2079755;28;20112;-72
2022/11/17 05:19:20;;;;;;;6.20;5.60;;;5.10;99.90;;;;;;2079912;28;20120;-72
2022/11/17 05:20:21;;;;;;;6.35;5.28;;;5.10;99.90;;;;;;2079857;28;20030;-73
2022/11/17 05:21:21;;;;;;;6.20;5.30;;;5.10;99.90;;;;;;2079162;28;20175;-71
2022/11/17 05:23:54;;;;;;;5.63;5.03;;;5.10;99.90;;;;;;2080072;28;20065;-72
2022/11/17 05:24:55;;;;;;;6.32;5.10;;;5.10;99.90;;;;;;2078904;28;20037;-72
2022/11/17 05:25:56;;;;;;;5.75;5.15;;;5.10;99.90;;;;;;2079168;28;20654;-73
2022/11/17 05:26:56;;;;;;;6.38;5.20;;;5.10;99.90;;;;;;2079846;28;20029;-72
2022/11/17 05:27:57;;;;;;;6.68;5.53;;;5.10;99.90;;;;;;2079899;28;20460;-72
2022/11/17 05:29:00;;;;;;;5.65;5.05;;;5.10;99.90;;;;;;2079995;28;20379;-72
2022/11/17 05:30:06;;;;;;;5.82;5.00;;;5.10;99.90;;;;;;2079900;28;20506;-72
2022/11/17 05:31:06;;;;;;;5.57;4.97;;;5.10;99.90;;;;;;2078712;28;20091;-71
2022/11/17 05:32:07;;;;;;;5.95;5.35;;;5.10;99.90;;;;;;2071044;28;20059;-71
2022/11/17 05:33:08;;;;;;;6.25;4.82;;;5.10;99.90;;;;;;2079270;28;20025;-72
2022/11/17 05:34:11;;;;;;;5.82;4.90;;;5.10;99.90;;;;;;2078969;28;20036;-71
2022/11/17 05:35:12;;;;;;;6.25;4.97;;;5.10;99.90;;;;;;2078989;28;20029;-72
2022/11/17 05:36:13;;;;;;;6.15;4.95;;;5.10;99.90;;;;;;2078906;28;20906;-72
2022/11/17 05:37:17;;;;;;;5.55;4.93;;;5.10;99.90;;;;;;2079691;28;20053;-72
2022/11/17 05:38:17;;;;;;;6.03;5.15;;;5.10;99.90;;;;;;2079574;28;20037;-73
2022/11/17 05:39:18;;;;;;;5.20;4.60;;;5.00;99.90;;;;;;2079014;28;20033;-72
2022/11/17 05:40:19;;;;;;;6.45;4.80;;;5.00;99.90;;;;;;2079196;28;20021;-72
2022/11/17 05:41:21;;;;;;;6.55;5.30;;;5.00;99.90;;;;;;2078491;28;20392;-72
2022/11/17 05:42:21;;;;;;;5.60;5.00;;;5.00;99.90;;;;;;2079873;28;20124;-71
2022/11/17 05:43:22;;;;;;;9.07;5.85;;;5.00;99.90;;;;;;2080042;28;20450;-71
2022/11/17 05:44:23;;;;;;;7.05;5.78;;;5.00;99.90;;;;;;2079591;28;20368;-71
2022/11/17 05:45:23;;;;;;;7.55;5.60;;;5.00;99.90;;;;;;2079014;28;20114;-71
2022/11/17 05:46:25;;;;;;;6.60;5.65;;;5.00;99.90;;;;;;2079067;28;20021;-71
2022/11/17 05:47:26;;;;;;;8.48;7.03;;;5.10;99.90;;;;;;2079463;28;20021;-73
2022/11/17 05:48:26;;;;;;;6.85;5.93;;;5.00;99.90;;;;;;2078832;28;20326;-71
2022/11/17 05:49:27;;;;;;;6.22;5.50;;;5.00;99.90;;;;;;2079058;28;20029;-72
2022/11/17 05:50:28;;;;;;;6.32;5.40;;;5.00;99.90;;;;;;2079640;28;20378;-72
2022/11/17 05:51:36;;;;;;;5.80;4.97;;;5.10;99.90;;;;;;2079598;28;20032;-72
2022/11/17 05:52:37;;;;;;;5.90;5.28;;;5.10;99.90;;;;;;2080383;28;20025;-72
2022/11/17 05:53:38;;;;;;;6.43;5.10;;;5.10;99.90;;;;;;2080444;28;20053;-73
2022/11/17 05:54:39;;;;;;;6.13;4.80;;;5.10;99.90;;;;;;2080227;28;20411;-73
2022/11/17 05:55:39;;;;;;;5.05;4.53;;;5.10;99.90;;;;;;2080515;28;20053;-73
2022/11/17 05:56:55;;;;;;;5.57;4.90;;;5.10;99.90;;;;;;2080307;28;20541;-72
2022/11/17 05:58:00;;;;;;;5.20;4.70;;;5.10;99.90;;;;;;2080392;28;20109;-73
2022/11/17 05:59:01;;;;;;;5.57;4.75;;;5.10;99.90;;;;;;2079675;28;20093;-73
2022/11/17 06:00:03;;;;;;;7.70;6.30;;;5.10;99.90;;;;;;2079911;28;20116;-73
2022/11/17 06:01:15;;;;;;;5.70;5.10;;;5.10;99.90;;;;;;2079810;28;20446;-73
2022/11/17 06:02:16;;;;;;;6.03;4.90;;;5.10;99.90;;;;;;2080414;28;20526;-73
2022/11/17 06:03:23;;;;;;;5.93;4.75;;;5.20;99.90;;;;;;2079715;28;20056;-73
2022/11/17 06:04:24;;;;;;;6.03;5.07;;;5.20;99.90;;;;;;2079291;28;20037;-73
2022/11/17 06:05:26;;;;;;;5.30;4.80;;;5.20;99.90;;;;;;2079553;28;20018;-73
2022/11/17 06:06:28;;;;;;;5.72;5.13;;;5.20;99.90;;;;;;2079990;28;20037;-73
2022/11/17 06:07:29;;;;;;;5.82;4.95;;;5.20;99.90;;;;;;2079786;28;20144;-73
2022/11/17 06:08:30;;;;;;;5.65;5.13;;;5.20;99.90;;;;;;2080233;28;20018;-73
2022/11/17 06:09:33;;;;;;;7.32;5.95;;;5.20;99.90;;;;;;2079533;28;20486;-73
2022/11/17 06:10:34;;;;;;;8.52;5.93;;;5.20;99.90;;;;;;2079187;28;20442;-73